Aérodrome :
LOGIN :

S'inscrire | Disclaimer

   EN    FR    IT 

 










Légende :    VFR   VFR Marginal   IFR   IFR Intensif   IFR Très Intensif
Visi : 
Plafond : 
>= 8 km
>= 3000ft
5 à 8 km
1000 à 3000 ft
1500m à 5 km
500 à 1000 ft
800 à 1500m
200 à 500 ft
< 800m
< 200 ft
Symboles :   Orages  Brouillard  Fortes neiges  Fortes précipitations  Vent > 20 kt
SIGMETs :   Divers  Orages  Givrage  Turbulence  Onde Orograph.  Cendres Volcan.







- Altitude de l'aérodrome : 18 ft
- Code IATA : AJA
- Voir les cartes d'approche


LFKJ - Ajaccio

DERNIER METAR :
  • 202030Z AUTO 02006KT 3700 -RA BR OVC019 08/07 Q1014 TEMPO 24015KT RA

METARs EXPIRÉS :
  • 202000Z AUTO 02008KT 4100 -RA BR BKN022 OVC027 08/07 Q1015 BECMG 32010KT 9999 NSW
  • 201930Z AUTO 03006KT 360V080 3500 -RA BR FEW005 OVC022 08/07 Q1015 BECMG 9999 NSW
  • 201900Z AUTO 01006KT 5000 -RA BR BKN024 OVC030 09/07 Q1015 TEMPO RA
  • 201830Z AUTO VRB02KT 8000 -RA BKN026 OVC035 09/07 Q1015 TEMPO RA
  • 201800Z AUTO 09004KT 060V130 6000 -RA BKN034 OVC041 09/07 Q1015 TEMPO RA BECMG 32010KT

TAF TAF LFKJ
Valide du 20 à 21h jusqu'au 21 à 21h UTC


202000Z 2021/2121 04005KT 9999 FEW040
TEMPO 2021/2107 24015KT 4000 RA BR BKN020
ATIS : +33 4 95 23 59 85
Pas de NOTAMs connus pour ce terrain.
10 SIGMETs publiés pour la FIR Marseille (LFMM) :
 
Turbulence forte
LFMM SIGMET 22 VALID 202300/210300 LFPW
LFMM MARSEILLE FIR/UIR SEV TURB FCST WI N4630 E00545 - N4630 E00700 - N4400 E00700 - N4345 E00800 - N4300 E00615 - N4630 E00545 SFC/FL120 STNR NC=
Turbulence forte
LFMM SIGMET 21 VALID 202300/210300 LFPW
LFMM MARSEILLE FIR/UIR SEV TURB FCST WI N4200 E00430 - N4200 E00415 - N4215 E00230 - N4300 E00245 - N4345 E00800 - N4315 E00945 - N4145 E00945 - N4115 E00930 - N4115 E00815 - N4200 E00430 SFC/FL070 STNR INTSF=
Turbulence forte
LFMM SIGMET 20 VALID 202300/210300 LFPW
LFMM MARSEILLE FIR/UIR SEV TURB FCST NW OF LINE N4215 E00300 - N4630 E00445 SFC/FL100 STNR NC=
Onde orographique forte
LFMM SIGMET 19 VALID 202300/210300 LFPW
LFMM MARSEILLE FIR/UIR SEV MTW FCST E OF E00845 SFC/FL200 STNR NC=
Onde orographique forte
LFMM SIGMET 18 VALID 202300/210300 LFPW
LFMM MARSEILLE FIR/UIR SEV MTW FCST WI N4215 E00345 - N4215 E00230 - N4245 E00230 - N4230 E00345 - N4215 E00345 SFC/FL350 STNR NC=
Turbulence forte
LFMM SIGMET 16 VALID 202000/202300 LFPW
LFMM MARSEILLE FIR/UIR SEV TURB FCST WI N4545 E00700 - N4400 E00700 - N4345 E00800 - N4300 E00615 - N4545 E00600 - N4545 E00700 SFC/FL120 STNR NC=
Turbulence forte
LFMM SIGMET 15 VALID 201930/202300 LFPW
LFMM MARSEILLE FIR/UIR SEV TURB FCST WI N4200 E00430 - N4200 E00415 - N4215 E00230 - N4300 E00245 - N4345 E00800 - N4315 E00945 - N4145 E00945 - N4115 E00930 - N4115 E00815 - N4200 E00430 SFC/FL070 STNR INTSF=
Turbulence forte
LFMM SIGMET 14 VALID 202000/202300 LFPW
LFMM MARSEILLE FIR/UIR SEV TURB FCST NW OF LINE N4215 E00300 - N4630 E00445 SFC/FL100 STNR INTSF=
Onde orographique forte
LFMM SIGMET 13 VALID 202000/202300 LFPW
LFMM MARSEILLE FIR/UIR SEV MTW FCST WI N4215 E00345 - N4215 E00230 - N4245 E00230 - N4230 E00345 - N4215 E00345 SFC/FL350 STNR NC=
Onde orographique forte
LFMM SIGMET 12 VALID 202000/202300 LFPW
LFMM MARSEILLE FIR/UIR SEV MTW FCST E OF E00845 SFC/FL200 STNR NC=



MET'MAP, la Météo Aéronautique d'un coup d'oeil ! - Copyright ORBIFLY Décembre 2007 - Disclaimer

ORBIFLY MET'MAP TEAM :

Programmation & Développement : Alexandra Zaïnal
Conception & Développement : Baudouin d'Aumeries
Co-Programmation & Développement : Marc-Olivier Méhu
Soutien technique & logistique : Manuel Goepfert

Contact : metmap@orbifly.com




SOURCES & CREDITS :

   NOAA